Time;durP1;ratioP1;P1;durP2;ratioP2;P2;SDS_P1;SDS_P2;PMS_P1;PMS_P2;Temp;Humidity;BMP_temperature;BMP_pressure;BME280_temperature;BME280_humidity;BME280_pressure;Samples;Min_cycle;Max_cycle;Signal;HPM_P1;HPM_P2
2022/10/27 00:02:23;;;;;;;2.57;1.83;;;12.00;99.90;;;;;;4959933;28;20481;-73
2022/10/27 00:04:48;;;;;;;2.53;1.93;;;12.00;99.90;;;;;;4970394;28;20413;-73
2022/10/27 00:07:14;;;;;;;4.20;2.03;;;12.00;99.90;;;;;;4961225;28;20413;-74
2022/10/27 00:09:39;;;;;;;2.90;1.70;;;12.00;99.90;;;;;;4959055;28;20426;-75
2022/10/27 00:12:05;;;;;;;2.83;1.70;;;11.90;99.90;;;;;;4961936;28;20394;-74
2022/10/27 00:14:30;;;;;;;2.50;1.50;;;12.00;99.90;;;;;;4960538;28;20390;-74
2022/10/27 00:16:56;;;;;;;3.33;1.80;;;12.00;99.90;;;;;;4962015;28;20408;-74
2022/10/27 00:19:23;;;;;;;4.25;2.20;;;12.00;99.90;;;;;;4961264;28;20429;-73
2022/10/27 00:21:50;;;;;;;1.70;1.60;;;12.00;99.90;;;;;;4962990;28;20405;-73
2022/10/27 00:24:19;;;;;;;1.60;1.43;;;12.00;99.90;;;;;;4962134;28;20390;-73
2022/10/27 00:26:45;;;;;;;4.13;1.67;;;12.00;99.90;;;;;;4960935;28;20405;-74
2022/10/27 00:29:11;;;;;;;2.13;1.60;;;12.10;99.90;;;;;;4953809;28;20944;-74
2022/10/27 00:31:37;;;;;;;3.58;1.70;;;12.10;99.90;;;;;;4971310;28;20404;-74
2022/10/27 00:34:02;;;;;;;2.70;1.73;;;12.00;99.90;;;;;;4971083;28;20997;-73
2022/10/27 00:36:28;;;;;;;3.30;1.48;;;12.10;99.90;;;;;;4957762;28;20441;-73
2022/10/27 00:38:58;;;;;;;5.67;1.70;;;12.10;99.90;;;;;;4971555;28;20724;-73
2022/10/27 00:41:40;;;;;;;2.50;1.80;;;12.00;99.90;;;;;;4972672;28;20384;-74
2022/10/27 00:44:38;;;;;;;2.67;1.52;;;12.00;99.90;;;;;;4970372;28;20408;-74
2022/10/27 00:47:06;;;;;;;3.70;1.80;;;11.90;99.90;;;;;;4969374;28;20397;-73
2022/10/27 00:49:41;;;;;;;4.17;1.90;;;12.00;99.90;;;;;;4953378;28;20398;-73
2022/10/27 00:52:14;;;;;;;2.38;1.73;;;11.90;99.90;;;;;;4953121;28;20449;-74
2022/10/27 00:54:41;;;;;;;3.05;1.60;;;11.80;99.90;;;;;;4951469;28;20935;-74
2022/10/27 00:57:08;;;;;;;3.13;1.50;;;11.90;99.90;;;;;;4965973;28;20413;-74
2022/10/27 00:59:35;;;;;;;2.75;1.75;;;11.90;99.90;;;;;;4972417;28;20399;-73
2022/10/27 01:02:01;;;;;;;2.90;1.45;;;11.80;99.90;;;;;;4970728;28;20396;-74
2022/10/27 01:04:52;;;;;;;3.17;1.80;;;11.80;99.90;;;;;;4972038;28;20399;-73
2022/10/27 01:07:19;;;;;;;3.42;1.70;;;11.90;99.90;;;;;;4952268;28;20413;-73
2022/10/27 01:09:45;;;;;;;4.40;1.90;;;11.80;99.90;;;;;;4952829;28;20408;-74
2022/10/27 01:12:10;;;;;;;6.10;2.13;;;11.80;99.90;;;;;;4952652;28;20386;-73
2022/10/27 01:14:36;;;;;;;2.90;1.40;;;11.80;99.90;;;;;;4952830;28;20888;-74
2022/10/27 01:17:33;;;;;;;4.60;1.80;;;11.80;99.90;;;;;;4971974;28;20403;-74
2022/10/27 01:20:13;;;;;;;5.50;1.75;;;11.80;99.90;;;;;;4972056;28;20392;-73
2022/10/27 01:22:58;;;;;;;4.07;1.90;;;11.70;99.90;;;;;;4955757;28;20417;-74
2022/10/27 01:25:50;;;;;;;5.53;1.75;;;11.60;99.90;;;;;;4952782;28;20396;-74
2022/10/27 01:28:35;;;;;;;3.00;1.77;;;11.60;99.90;;;;;;4953662;28;20406;-74
2022/10/27 01:31:26;;;;;;;2.90;1.75;;;11.70;99.90;;;;;;4952458;28;20938;-74
2022/10/27 01:34:30;;;;;;;3.55;1.85;;;11.70;99.90;;;;;;4971348;28;20412;-74
2022/10/27 01:37:06;;;;;;;3.78;1.83;;;11.60;99.90;;;;;;4955101;28;20413;-74
2022/10/27 01:39:52;;;;;;;2.85;1.98;;;11.50;99.90;;;;;;4952460;28;20441;-74
2022/10/27 01:42:28;;;;;;;4.00;1.80;;;11.60;99.90;;;;;;4968560;28;20930;-74
2022/10/27 01:44:56;;;;;;;4.45;1.63;;;11.50;99.90;;;;;;4971504;28;20384;-73
2022/10/27 01:47:23;;;;;;;3.55;2.00;;;11.50;99.90;;;;;;4971501;28;20393;-74
2022/10/27 01:49:53;;;;;;;5.60;1.70;;;11.50;99.90;;;;;;4970280;28;20400;-74
2022/10/27 01:52:42;;;;;;;5.22;1.60;;;11.40;99.90;;;;;;4964440;28;20474;-74
2022/10/27 01:55:16;;;;;;;3.80;2.03;;;11.40;99.90;;;;;;4969961;28;20404;-73
2022/10/27 01:57:57;;;;;;;2.88;1.98;;;11.40;99.90;;;;;;4971375;28;20384;-74
2022/10/27 02:00:22;;;;;;;2.97;1.90;;;11.50;99.90;;;;;;4965868;28;20409;-73
2022/10/27 02:02:56;;;;;;;2.75;1.90;;;11.50;99.90;;;;;;4957512;28;20408;-74
2022/10/27 02:05:48;;;;;;;3.50;1.70;;;11.60;99.90;;;;;;4971454;28;20395;-74
2022/10/27 02:08:26;;;;;;;4.23;2.00;;;11.70;99.90;;;;;;4971262;28;20392;-74
2022/10/27 02:10:58;;;;;;;3.30;2.10;;;11.70;99.90;;;;;;4971259;28;20384;-74
2022/10/27 02:13:24;;;;;;;5.07;2.00;;;11.80;99.90;;;;;;4960776;28;20440;-74
2022/10/27 02:15:54;;;;;;;2.45;1.52;;;11.80;99.90;;;;;;4950682;28;20402;-74
2022/10/27 02:18:32;;;;;;;3.03;1.75;;;11.60;99.90;;;;;;4950724;28;20857;-74
2022/10/27 02:21:02;;;;;;;4.13;2.30;;;11.70;99.90;;;;;;4951717;28;20497;-74
2022/10/27 02:23:29;;;;;;;2.40;2.00;;;11.60;99.90;;;;;;4954007;28;20393;-74
2022/10/27 02:26:00;;;;;;;4.03;2.15;;;11.70;99.90;;;;;;4955875;28;20389;-73
2022/10/27 02:28:32;;;;;;;3.70;2.10;;;11.70;99.90;;;;;;4955798;28;20420;-74
2022/10/27 02:30:59;;;;;;;4.90;2.08;;;11.80;99.90;;;;;;4955880;28;20386;-73
2022/10/27 02:33:25;;;;;;;4.23;2.00;;;11.70;99.90;;;;;;4973446;28;20423;-74
2022/10/27 02:35:53;;;;;;;2.80;2.00;;;11.60;99.90;;;;;;4961369;28;20398;-73
2022/10/27 02:38:20;;;;;;;3.13;2.00;;;11.60;99.90;;;;;;4954680;28;20492;-73
2022/10/27 02:40:46;;;;;;;7.70;2.28;;;11.60;99.90;;;;;;4974884;28;20388;-73
2022/10/27 02:43:11;;;;;;;7.27;2.50;;;11.50;99.90;;;;;;4974600;28;20522;-74
2022/10/27 02:45:37;;;;;;;3.03;1.83;;;11.50;99.90;;;;;;4974946;28;20388;-74
2022/10/27 02:48:02;;;;;;;5.65;2.17;;;11.50;99.90;;;;;;4974781;28;20392;-74
2022/10/27 02:50:28;;;;;;;3.78;2.30;;;11.40;99.90;;;;;;4956558;28;20854;-74
2022/10/27 02:52:53;;;;;;;4.00;2.30;;;11.30;99.90;;;;;;4953480;28;20468;-74
2022/10/27 02:55:19;;;;;;;3.83;1.90;;;11.20;99.90;;;;;;4964091;28;20474;-73
2022/10/27 02:57:45;;;;;;;3.80;2.33;;;11.20;99.90;;;;;;4974566;28;20861;-75
2022/10/27 03:00:12;;;;;;;5.10;2.28;;;11.20;99.90;;;;;;4974618;28;20955;-74
2022/10/27 03:02:37;;;;;;;5.30;2.40;;;11.20;99.90;;;;;;4972946;28;20504;-73
2022/10/27 03:05:03;;;;;;;5.33;2.70;;;11.30;99.90;;;;;;4968261;28;20433;-74
2022/10/27 03:07:29;;;;;;;4.80;2.53;;;11.30;99.90;;;;;;4955035;28;20398;-74
2022/10/27 03:09:54;;;;;;;4.10;2.70;;;11.30;99.90;;;;;;4955153;28;20429;-75
2022/10/27 03:12:20;;;;;;;4.70;2.60;;;11.40;99.90;;;;;;4971313;28;20487;-73
2022/10/27 03:14:45;;;;;;;3.60;2.63;;;11.50;99.90;;;;;;4974194;28;20396;-73
2022/10/27 03:17:11;;;;;;;3.13;2.30;;;11.50;99.90;;;;;;4974238;28;20947;-74
2022/10/27 03:19:36;;;;;;;3.90;2.60;;;11.60;99.90;;;;;;4974223;28;20763;-73
2022/10/27 03:22:02;;;;;;;4.77;2.60;;;11.50;99.90;;;;;;4960610;28;20912;-73
2022/10/27 03:24:28;;;;;;;3.80;2.72;;;11.50;99.90;;;;;;4953229;28;20409;-73
2022/10/27 03:26:53;;;;;;;7.10;2.50;;;11.30;99.90;;;;;;4954816;28;21095;-73
2022/10/27 03:29:19;;;;;;;3.63;2.47;;;11.30;99.90;;;;;;4954799;28;20464;-73
2022/10/27 03:31:44;;;;;;;6.70;2.30;;;11.30;99.90;;;;;;4970753;28;20414;-73
2022/10/27 03:34:10;;;;;;;4.70;2.67;;;11.40;99.90;;;;;;4971373;28;20499;-74
2022/10/27 03:36:35;;;;;;;3.92;2.80;;;11.30;99.90;;;;;;4974420;28;20758;-74
2022/10/27 03:39:01;;;;;;;4.40;3.00;;;11.30;99.90;;;;;;4974288;28;20399;-74
2022/10/27 03:41:27;;;;;;;3.60;2.80;;;11.20;99.90;;;;;;4960704;28;20441;-74
2022/10/27 03:43:52;;;;;;;5.07;2.77;;;11.20;99.90;;;;;;4963320;28;20913;-74
2022/10/27 03:46:18;;;;;;;4.33;3.20;;;11.30;99.90;;;;;;4974111;28;20767;-74
2022/10/27 03:48:43;;;;;;;6.70;3.00;;;11.20;99.90;;;;;;4974047;28;20399;-73
2022/10/27 03:51:09;;;;;;;3.97;2.70;;;11.30;99.90;;;;;;4958376;28;20401;-73
2022/10/27 03:53:34;;;;;;;5.37;3.00;;;11.30;99.90;;;;;;4953694;28;20472;-74
2022/10/27 03:56:00;;;;;;;3.70;2.70;;;11.30;99.90;;;;;;4955748;28;20900;-74
2022/10/27 03:58:25;;;;;;;3.90;2.60;;;11.30;99.90;;;;;;4954406;28;20488;-74
2022/10/27 04:00:51;;;;;;;5.75;3.00;;;11.20;99.90;;;;;;4954495;28;20473;-73
2022/10/27 04:03:16;;;;;;;5.10;2.63;;;11.30;99.90;;;;;;4954116;28;20422;-74
2022/10/27 04:05:42;;;;;;;4.03;2.53;;;11.30;99.90;;;;;;4955507;28;20999;-73
2022/10/27 04:08:08;;;;;;;3.95;2.90;;;11.20;99.90;;;;;;4973821;28;20418;-74
2022/10/27 04:10:33;;;;;;;4.13;2.60;;;11.20;99.90;;;;;;4973722;28;20439;-74
2022/10/27 04:12:59;;;;;;;4.43;3.30;;;11.10;99.90;;;;;;4971856;28;20413;-73
2022/10/27 04:15:26;;;;;;;4.10;2.70;;;11.10;99.90;;;;;;4964419;28;20896;-74
2022/10/27 04:17:55;;;;;;;4.10;2.60;;;11.10;99.90;;;;;;4954269;28;20509;-73
2022/10/27 04:20:21;;;;;;;8.30;2.80;;;11.00;99.90;;;;;;4954093;28;20386;-74
2022/10/27 04:22:47;;;;;;;4.70;2.70;;;10.80;99.90;;;;;;4953819;28;20784;-74
2022/10/27 04:25:13;;;;;;;4.67;3.57;;;10.80;99.90;;;;;;4954119;28;20406;-76
2022/10/27 04:27:38;;;;;;;5.50;3.50;;;10.80;99.90;;;;;;4954095;28;20398;-74
2022/10/27 04:30:04;;;;;;;5.10;3.67;;;10.80;99.90;;;;;;4959178;28;20901;-72
2022/10/27 04:32:30;;;;;;;5.40;3.55;;;10.80;99.90;;;;;;4948021;28;20412;-74
2022/10/27 04:34:55;;;;;;;5.93;3.50;;;10.90;99.90;;;;;;4953585;28;20405;-74
2022/10/27 04:37:21;;;;;;;4.90;3.20;;;11.00;99.90;;;;;;4935784;29;20400;-74
2022/10/27 04:39:46;;;;;;;6.00;3.47;;;11.10;99.90;;;;;;4938296;28;20481;-74
2022/10/27 04:42:12;;;;;;;7.10;3.50;;;11.20;99.90;;;;;;4964321;28;20473;-73
2022/10/27 04:44:37;;;;;;;5.50;3.30;;;11.30;99.90;;;;;;4972308;28;20496;-73
2022/10/27 04:47:03;;;;;;;6.10;3.38;;;11.30;99.90;;;;;;4972700;28;20467;-74
2022/10/27 04:49:29;;;;;;;4.80;3.58;;;11.30;99.90;;;;;;4972788;28;20388;-74
2022/10/27 04:51:55;;;;;;;10.00;3.10;;;11.30;99.90;;;;;;4963404;28;20413;-74
2022/10/27 04:54:20;;;;;;;5.10;3.10;;;11.20;99.90;;;;;;4953024;28;20481;-74
2022/10/27 04:56:46;;;;;;;4.77;3.03;;;11.20;99.90;;;;;;4952266;28;20739;-74
2022/10/27 04:59:11;;;;;;;4.00;3.27;;;11.10;99.90;;;;;;4966861;28;20396;-74
2022/10/27 05:01:38;;;;;;;6.50;3.80;;;11.00;99.90;;;;;;4972750;28;20400;-73
2022/10/27 05:04:04;;;;;;;6.95;3.20;;;11.00;99.90;;;;;;4971846;28;20411;-74
2022/10/27 05:06:29;;;;;;;4.85;3.40;;;11.00;99.90;;;;;;4972590;28;20389;-72
2022/10/27 05:08:55;;;;;;;6.50;3.70;;;11.00;99.90;;;;;;4960480;28;20421;-73
2022/10/27 05:11:20;;;;;;;4.67;3.67;;;11.10;99.90;;;;;;4945121;28;20410;-72
2022/10/27 05:13:50;;;;;;;4.80;3.90;;;11.00;99.90;;;;;;4949410;28;20455;-74
2022/10/27 05:16:15;;;;;;;3.40;3.10;;;10.90;99.90;;;;;;4954243;28;20406;-74
2022/10/27 05:18:41;;;;;;;9.07;3.72;;;10.90;99.90;;;;;;4943071;29;20386;-74
2022/10/27 05:21:06;;;;;;;7.90;4.30;;;10.90;99.90;;;;;;4967620;28;20410;-74
2022/10/27 05:23:32;;;;;;;5.17;4.03;;;10.80;99.90;;;;;;4949903;28;20431;-74
2022/10/27 05:26:00;;;;;;;5.90;3.30;;;10.90;99.90;;;;;;4951602;29;20577;-75
2022/10/27 05:28:26;;;;;;;5.85;3.78;;;10.90;99.90;;;;;;4951604;28;20453;-74
2022/10/27 05:30:57;;;;;;;7.57;4.57;;;10.90;99.90;;;;;;4949883;28;20441;-74
2022/10/27 05:33:23;;;;;;;5.47;3.60;;;11.10;99.90;;;;;;4946774;28;20417;-74
2022/10/27 05:35:49;;;;;;;3.90;3.50;;;11.00;99.90;;;;;;4953293;28;20409;-74
2022/10/27 05:38:15;;;;;;;7.10;4.10;;;11.10;99.90;;;;;;4949886;28;20414;-75
2022/10/27 05:40:41;;;;;;;7.40;4.20;;;11.20;99.90;;;;;;4949984;28;20412;-75
2022/10/27 05:43:06;;;;;;;5.70;3.60;;;11.10;99.90;;;;;;4948172;28;20420;-73
2022/10/27 05:45:33;;;;;;;5.40;3.50;;;11.00;99.90;;;;;;4947506;28;20425;-74
2022/10/27 05:48:01;;;;;;;10.05;3.90;;;11.10;99.90;;;;;;4950633;28;20405;-74
2022/10/27 05:50:27;;;;;;;4.95;3.50;;;11.10;99.90;;;;;;4949858;28;20432;-74
2022/10/27 05:52:53;;;;;;;9.75;4.20;;;11.00;99.90;;;;;;4952638;28;20434;-74
2022/10/27 05:55:19;;;;;;;6.00;4.20;;;11.00;99.90;;;;;;4950040;28;20417;-74
2022/10/27 05:58:01;;;;;;;10.00;5.68;;;11.00;99.90;;;;;;4949739;28;20488;-75
2022/10/27 06:00:30;;;;;;;10.88;7.70;;;11.00;99.90;;;;;;4949523;28;20476;-74
2022/10/27 06:02:57;;;;;;;18.43;11.30;;;11.00;99.90;;;;;;4948476;28;20421;-74
2022/10/27 06:05:23;;;;;;;8.20;5.20;;;10.90;99.90;;;;;;4947814;28;20401;-74
2022/10/27 06:07:49;;;;;;;11.10;4.60;;;10.90;99.90;;;;;;4952037;28;20558;-74
2022/10/27 06:10:15;;;;;;;12.10;5.53;;;10.90;99.90;;;;;;4948282;28;20444;-74
2022/10/27 06:12:40;;;;;;;6.68;4.65;;;10.90;99.90;;;;;;4950809;28;20418;-74
2022/10/27 06:15:06;;;;;;;9.60;4.78;;;10.80;99.90;;;;;;4950023;28;20417;-74
2022/10/27 06:17:32;;;;;;;6.70;5.10;;;10.80;99.90;;;;;;4950710;28;20761;-74
2022/10/27 06:19:57;;;;;;;6.90;4.20;;;10.70;99.90;;;;;;4950031;29;20398;-74
2022/10/27 06:22:23;;;;;;;5.30;4.13;;;10.80;99.90;;;;;;4959992;28;20392;-74
2022/10/27 06:24:48;;;;;;;7.03;3.90;;;10.70;99.90;;;;;;4971175;28;20409;-74
2022/10/27 06:27:14;;;;;;;4.83;3.83;;;10.70;99.90;;;;;;4959999;28;20473;-75
2022/10/27 06:29:39;;;;;;;6.55;4.45;;;10.80;99.90;;;;;;4952138;28;20400;-74
2022/10/27 06:32:05;;;;;;;7.93;3.73;;;10.90;99.90;;;;;;4951981;28;20390;-74
2022/10/27 06:34:30;;;;;;;5.97;4.10;;;10.80;99.90;;;;;;4951837;28;20402;-75
2022/10/27 06:36:56;;;;;;;9.10;4.10;;;10.80;99.90;;;;;;4956619;28;20408;-74
2022/10/27 06:39:22;;;;;;;9.30;4.60;;;10.90;99.90;;;;;;4971393;28;20447;-74
2022/10/27 06:41:47;;;;;;;6.20;4.00;;;10.80;99.90;;;;;;4971047;28;20495;-74
2022/10/27 06:44:13;;;;;;;7.13;3.75;;;10.90;99.90;;;;;;4970906;28;20400;-74
2022/10/27 06:46:38;;;;;;;6.73;4.53;;;10.90;99.90;;;;;;4970434;28;20400;-75
2022/10/27 06:49:05;;;;;;;8.73;4.97;;;11.10;99.90;;;;;;4964777;28;20409;-75
2022/10/27 06:51:31;;;;;;;8.43;5.25;;;11.10;99.90;;;;;;4971150;28;20392;-75
2022/10/27 06:53:56;;;;;;;4.53;3.80;;;11.20;99.90;;;;;;4970699;28;20419;-74
2022/10/27 06:56:22;;;;;;;7.97;4.65;;;11.30;99.90;;;;;;4971198;28;20392;-74
2022/10/27 06:58:48;;;;;;;6.10;4.40;;;11.40;99.90;;;;;;4970464;28;20427;-74
2022/10/27 07:01:13;;;;;;;8.80;4.20;;;11.50;99.90;;;;;;4971039;28;20392;-74
2022/10/27 07:03:39;;;;;;;6.10;4.55;;;11.50;99.90;;;;;;4951846;28;20524;-74
2022/10/27 07:06:05;;;;;;;9.70;5.23;;;11.50;99.90;;;;;;4951825;28;20518;-74
2022/10/27 07:08:31;;;;;;;7.53;4.13;;;11.60;99.90;;;;;;4952711;28;20537;-74
2022/10/27 07:10:57;;;;;;;6.22;4.10;;;11.70;99.90;;;;;;4955553;28;20493;-74
2022/10/27 07:13:22;;;;;;;6.18;4.30;;;11.60;99.90;;;;;;4970443;28;20424;-75
2022/10/27 07:15:48;;;;;;;6.63;4.20;;;11.70;99.90;;;;;;4974326;28;20483;-74
2022/10/27 07:18:13;;;;;;;7.77;4.60;;;11.80;99.90;;;;;;4970557;28;20405;-74
2022/10/27 07:20:39;;;;;;;6.82;3.92;;;11.80;99.90;;;;;;4955287;28;20395;-74
2022/10/27 07:23:06;;;;;;;8.25;4.30;;;11.70;99.90;;;;;;4954838;29;20393;-75
2022/10/27 07:25:33;;;;;;;8.13;4.38;;;11.80;99.90;;;;;;4955183;28;20390;-75
2022/10/27 07:28:00;;;;;;;6.97;4.72;;;11.80;99.90;;;;;;4963573;28;20408;-74
2022/10/27 07:30:30;;;;;;;7.50;4.70;;;12.00;99.90;;;;;;4989316;28;20403;-75
2022/10/27 07:32:56;;;;;;;8.00;4.80;;;12.20;99.90;;;;;;4974027;28;20444;-75
2022/10/27 07:35:22;;;;;;;8.23;4.50;;;12.40;99.90;;;;;;4973502;28;20395;-75
2022/10/27 07:37:48;;;;;;;8.07;5.13;;;12.40;99.90;;;;;;4953733;28;20485;-75
2022/10/27 07:40:16;;;;;;;8.82;4.70;;;12.40;99.90;;;;;;4973102;28;20758;-75
2022/10/27 07:42:44;;;;;;;7.90;5.10;;;12.30;99.90;;;;;;4973771;28;20400;-74
2022/10/27 07:45:11;;;;;;;8.63;4.55;;;12.40;99.90;;;;;;4972835;28;20762;-75
2022/10/27 07:47:36;;;;;;;7.53;4.57;;;12.50;99.90;;;;;;4972715;28;20424;-75
2022/10/27 07:50:02;;;;;;;7.93;5.30;;;12.60;99.90;;;;;;4956709;28;20832;-74
2022/10/27 07:52:27;;;;;;;10.00;4.90;;;12.50;99.90;;;;;;4954416;28;20422;-75
2022/10/27 07:54:53;;;;;;;10.40;4.57;;;12.60;99.90;;;;;;4955303;28;20409;-74
2022/10/27 07:57:19;;;;;;;9.38;4.57;;;12.60;99.90;;;;;;4972643;28;20399;-75
2022/10/27 07:59:44;;;;;;;9.57;4.90;;;12.70;99.90;;;;;;4973849;28;20396;-74
2022/10/27 08:02:10;;;;;;;5.70;4.60;;;12.70;99.90;;;;;;4973716;28;20387;-74
2022/10/27 08:04:36;;;;;;;8.60;4.20;;;12.80;99.90;;;;;;4973617;28;20418;-75
2022/10/27 08:07:01;;;;;;;9.53;4.60;;;12.90;99.90;;;;;;4956091;28;20389;-73
2022/10/27 08:09:27;;;;;;;7.75;4.53;;;13.00;99.90;;;;;;4972307;28;20402;-75
2022/10/27 08:11:52;;;;;;;9.63;5.33;;;13.20;99.90;;;;;;4973522;28;20480;-75
2022/10/27 08:14:18;;;;;;;7.00;4.40;;;13.30;99.90;;;;;;4972088;28;20408;-74
2022/10/27 08:16:44;;;;;;;7.30;4.30;;;13.50;99.90;;;;;;4954292;28;20481;-74
2022/10/27 08:19:10;;;;;;;4.73;3.80;;;13.60;99.90;;;;;;4954278;28;20947;-74
2022/10/27 08:21:35;;;;;;;11.90;4.50;;;13.70;99.90;;;;;;4953380;28;20398;-74
2022/10/27 08:24:01;;;;;;;7.88;4.05;;;13.80;99.90;;;;;;4953920;28;20488;-74
2022/10/27 08:26:26;;;;;;;7.07;3.80;;;13.90;99.90;;;;;;4953895;28;20432;-74
2022/10/27 08:28:52;;;;;;;6.67;4.50;;;14.10;99.90;;;;;;4954134;28;20911;-75
2022/10/27 08:31:17;;;;;;;7.30;4.32;;;14.10;99.90;;;;;;4954019;28;20488;-75
2022/10/27 08:33:43;;;;;;;5.43;3.63;;;14.30;99.90;;;;;;4960187;28;20416;-74
2022/10/27 08:36:10;;;;;;;5.13;3.90;;;14.40;99.90;;;;;;4973312;28;20400;-74
2022/10/27 08:38:37;;;;;;;6.65;3.80;;;14.50;99.90;;;;;;4962800;28;20469;-74
2022/10/27 08:41:19;;;;;;;5.35;3.63;;;14.50;99.90;;;;;;4953940;28;20824;-73
2022/10/27 08:44:07;;;;;;;7.50;3.50;;;14.60;99.90;;;;;;4953954;28;20394;-74
2022/10/27 08:46:51;;;;;;;5.83;3.60;;;14.80;99.90;;;;;;4952626;28;20435;-74
2022/10/27 08:49:37;;;;;;;5.43;3.42;;;14.90;99.90;;;;;;4968400;28;20898;-74
2022/10/27 08:52:11;;;;;;;8.05;3.80;;;15.00;99.90;;;;;;4957115;28;20418;-74
2022/10/27 08:54:38;;;;;;;5.00;3.42;;;15.10;99.90;;;;;;4953361;28;20410;-74
2022/10/27 08:57:05;;;;;;;4.97;3.40;;;15.30;99.90;;;;;;4954641;28;20402;-74
2022/10/27 08:59:33;;;;;;;6.00;3.70;;;15.30;99.90;;;;;;4953918;28;20468;-74
2022/10/27 09:02:25;;;;;;;7.28;3.60;;;15.40;99.90;;;;;;4967201;28;20426;-73
2022/10/27 09:04:57;;;;;;;7.60;3.60;;;15.50;99.90;;;;;;4953703;28;20460;-74
2022/10/27 09:07:34;;;;;;;7.25;4.13;;;15.60;99.90;;;;;;4953665;28;20441;-74
2022/10/27 09:10:18;;;;;;;6.03;3.50;;;15.70;99.90;;;;;;4955210;28;20740;-74
2022/10/27 09:13:06;;;;;;;6.03;3.72;;;15.90;99.90;;;;;;4971113;28;20968;-74
2022/10/27 09:15:32;;;;;;;7.57;3.60;;;16.00;99.90;;;;;;4970672;28;20423;-74
2022/10/27 09:18:16;;;;;;;6.30;3.37;;;16.00;99.90;;;;;;4953321;28;20422;-74
2022/10/27 09:20:56;;;;;;;8.23;3.75;;;16.10;99.90;;;;;;4953021;28;20409;-75
2022/10/27 09:23:28;;;;;;;5.53;3.13;;;16.20;99.90;;;;;;4952962;28;20398;-75
2022/10/27 09:25:57;;;;;;;6.55;3.45;;;16.20;99.90;;;;;;4953616;28;20402;-74
2022/10/27 09:28:53;;;;;;;7.30;3.40;;;16.30;99.90;;;;;;4953127;28;20397;-75
2022/10/27 09:31:34;;;;;;;4.33;2.90;;;16.40;99.90;;;;;;4953053;28;20389;-74
2022/10/27 09:34:11;;;;;;;5.47;3.05;;;16.50;99.90;;;;;;4962141;28;20412;-74
2022/10/27 09:36:38;;;;;;;11.50;3.80;;;16.70;99.90;;;;;;4972435;28;20403;-74
2022/10/27 09:39:03;;;;;;;5.50;2.60;;;16.80;99.90;;;;;;4972126;28;20388;-75
2022/10/27 09:41:29;;;;;;;6.43;2.90;;;16.90;99.90;;;;;;4972153;28;20388;-74
2022/10/27 09:43:55;;;;;;;12.27;3.40;;;17.00;99.90;;;;;;4963365;28;20565;-74
2022/10/27 09:46:23;;;;;;;7.47;3.20;;;17.20;99.90;;;;;;4951771;28;20470;-75
2022/10/27 09:48:59;;;;;;;6.85;3.40;;;17.30;99.90;;;;;;4952960;28;20907;-75
2022/10/27 09:51:33;;;;;;;8.00;3.40;;;17.40;99.90;;;;;;4962297;28;20404;-74
2022/10/27 09:54:02;;;;;;;7.85;3.30;;;17.40;99.90;;;;;;4986012;28;20496;-75
2022/10/27 09:56:30;;;;;;;5.20;2.70;;;17.50;99.90;;;;;;4971957;28;20384;-75
2022/10/27 09:58:58;;;;;;;4.60;2.50;;;17.60;99.90;;;;;;4970649;28;20400;-75
2022/10/27 10:01:26;;;;;;;7.03;2.90;;;17.90;99.90;;;;;;4961834;28;20433;-75
2022/10/27 10:04:17;;;;;;;7.90;2.67;;;17.90;99.90;;;;;;4957359;28;20503;-75
2022/10/27 10:06:52;;;;;;;8.30;3.00;;;17.90;99.90;;;;;;4958635;28;20800;-75
2022/10/27 10:09:26;;;;;;;4.53;2.90;;;18.10;99.90;;;;;;4951083;28;20394;-74
2022/10/27 10:12:16;;;;;;;8.45;2.90;;;18.40;99.90;;;;;;4951306;28;20397;-75
2022/10/27 10:14:45;;;;;;;4.63;2.38;;;18.70;99.90;;;;;;4950889;28;20601;-74
2022/10/27 10:17:23;;;;;;;7.05;2.70;;;18.80;99.90;;;;;;4961828;28;20772;-75
2022/10/27 10:19:49;;;;;;;8.63;3.17;;;18.80;99.90;;;;;;4971800;28;20395;-75
2022/10/27 10:22:32;;;;;;;2.97;2.58;;;18.80;99.90;;;;;;4960328;28;20483;-76
2022/10/27 10:25:18;;;;;;;4.63;2.50;;;18.90;99.90;;;;;;4970185;28;20392;-74
2022/10/27 10:27:54;;;;;;;5.25;2.58;;;19.00;99.90;;;;;;4970242;28;20385;-74
2022/10/27 10:30:19;;;;;;;5.07;2.78;;;18.90;99.90;;;;;;4971656;28;20399;-75
2022/10/27 10:32:53;;;;;;;5.18;2.50;;;19.00;99.90;;;;;;4965278;28;20863;-76
2022/10/27 10:35:48;;;;;;;7.28;2.75;;;19.20;99.90;;;;;;4952496;28;20393;-75
2022/10/27 10:38:23;;;;;;;8.60;3.30;;;19.40;99.90;;;;;;4960969;28;20399;-75
2022/10/27 10:41:16;;;;;;;4.90;3.00;;;19.70;99.90;;;;;;4971636;28;20403;-76
2022/10/27 10:43:42;;;;;;;6.27;3.50;;;19.80;99.90;;;;;;4972540;28;20755;-75
2022/10/27 10:46:22;;;;;;;6.50;3.05;;;19.80;99.90;;;;;;4975434;28;20408;-75
2022/10/27 10:48:54;;;;;;;4.20;3.10;;;20.10;99.90;;;;;;4962590;28;20407;-75
2022/10/27 10:51:35;;;;;;;4.00;2.92;;;20.40;99.90;;;;;;4954904;28;20400;-75
2022/10/27 10:54:07;;;;;;;4.68;3.13;;;20.80;99.90;;;;;;4975453;23;20452;-73
2022/10/27 10:56:36;;;;;;;5.95;3.05;;;21.10;99.90;;;;;;4964983;28;20547;-74
2022/10/27 10:59:14;;;;;;;5.78;2.80;;;21.20;99.90;;;;;;4978182;28;20463;-73
2022/10/27 11:01:52;;;;;;;6.25;2.78;;;21.50;99.90;;;;;;4978467;28;20396;-73
2022/10/27 11:04:22;;;;;;;7.57;2.75;;;22.10;99.90;;;;;;4977671;28;20428;-73
2022/10/27 11:07:04;;;;;;;5.72;2.50;;;23.00;99.90;;;;;;4970652;28;20408;-72
2022/10/27 11:09:46;;;;;;;6.63;2.30;;;23.90;95.90;;;;;;4959133;28;20382;-73
2022/10/27 11:12:32;;;;;;;4.25;2.45;;;24.90;93.40;;;;;;4957494;28;20402;-73
2022/10/27 11:15:14;;;;;;;5.18;2.50;;;24.40;95.90;;;;;;4976009;28;20412;-73
2022/10/27 11:17:44;;;;;;;5.15;2.30;;;24.50;95.30;;;;;;4977829;28;20384;-72
2022/10/27 11:20:20;;;;;;;5.05;2.80;;;24.70;96.50;;;;;;4977769;28;20377;-73
2022/10/27 11:22:49;;;;;;;4.22;2.70;;;24.60;95.10;;;;;;4959929;28;20478;-73
2022/10/27 11:25:19;;;;;;;4.70;2.27;;;24.90;94.30;;;;;;4939423;29;20400;-74
2022/10/27 11:28:15;;;;;;;5.22;2.60;;;24.80;96.40;;;;;;4939542;29;20427;-73
2022/10/27 11:31:08;;;;;;;4.90;2.30;;;25.50;93.00;;;;;;4982468;28;20499;-76
2022/10/27 11:33:36;;;;;;;4.85;2.53;;;26.80;87.80;;;;;;4977701;28;20422;-74
2022/10/27 11:36:05;;;;;;;3.80;2.10;;;26.20;86.50;;;;;;4975758;28;20451;-74
2022/10/27 11:38:58;;;;;;;4.40;2.38;;;25.90;87.70;;;;;;4974398;28;20388;-72
2022/10/27 11:41:59;;;;;;;4.20;2.20;;;26.80;85.20;;;;;;4975971;28;20426;-74
2022/10/27 11:44:33;;;;;;;4.75;2.47;;;27.20;78.80;;;;;;4932900;29;20401;-74
2022/10/27 11:47:07;;;;;;;6.22;2.22;;;27.50;76.90;;;;;;4968339;28;20398;-74
2022/10/27 11:49:51;;;;;;;4.80;2.50;;;27.10;75.20;;;;;;4974165;28;20463;-73
2022/10/27 11:52:39;;;;;;;4.65;2.55;;;27.00;76.80;;;;;;4961372;28;20859;-73
2022/10/27 11:55:07;;;;;;;5.05;3.20;;;27.20;76.60;;;;;;4953228;28;20398;-73
2022/10/27 11:57:42;;;;;;;6.45;3.30;;;26.20;76.00;;;;;;4954496;28;20394;-75
2022/10/27 12:00:19;;;;;;;8.85;3.10;;;27.20;77.50;;;;;;4960231;28;20490;-73
2022/10/27 12:03:26;;;;;;;4.50;2.60;;;27.20;76.80;;;;;;4954297;28;20402;-73
2022/10/27 12:06:29;;;;;;;5.30;2.80;;;26.30;80.90;;;;;;4954649;28;20382;-77
2022/10/27 12:09:13;;;;;;;4.68;2.60;;;27.00;82.60;;;;;;4954512;28;20434;-73
2022/10/27 12:11:54;;;;;;;6.37;2.80;;;26.60;77.00;;;;;;4973434;28;20404;-72
2022/10/27 12:14:37;;;;;;;4.90;2.38;;;26.70;80.20;;;;;;4958511;28;20518;-75
2022/10/27 12:17:38;;;;;;;5.95;3.00;;;26.90;76.30;;;;;;4952360;28;20453;-75
2022/10/27 12:20:06;;;;;;;6.40;3.00;;;27.60;75.50;;;;;;4969129;28;20906;-75
2022/10/27 12:22:39;;;;;;;5.97;2.60;;;26.80;73.40;;;;;;4957138;28;20857;-72
2022/10/27 12:25:22;;;;;;;6.75;3.42;;;27.40;78.10;;;;;;4954102;29;20521;-75
2022/10/27 12:27:51;;;;;;;5.57;2.67;;;26.80;77.60;;;;;;4954211;29;20393;-73
2022/10/27 12:30:19;;;;;;;7.25;2.83;;;26.60;78.00;;;;;;4962452;28;20417;-72
2022/10/27 12:33:08;;;;;;;8.75;3.30;;;27.00;74.60;;;;;;4956664;28;20410;-72
2022/10/27 12:35:53;;;;;;;7.43;3.40;;;26.40;79.60;;;;;;4955824;28;20416;-73
2022/10/27 12:38:22;;;;;;;5.15;2.90;;;27.00;82.00;;;;;;4966329;28;20442;-74
2022/10/27 12:41:07;;;;;;;5.03;2.80;;;27.00;78.50;;;;;;4960262;28;20409;-74
2022/10/27 12:43:35;;;;;;;6.15;3.00;;;27.70;75.60;;;;;;4972873;28;20433;-75
2022/10/27 12:46:09;;;;;;;6.38;3.22;;;27.30;75.60;;;;;;4971835;28;20392;-74
2022/10/27 12:48:58;;;;;;;4.75;3.15;;;27.90;76.90;;;;;;4969491;28;20401;-74
2022/10/27 12:51:44;;;;;;;6.07;2.80;;;27.30;74.70;;;;;;4970667;28;20449;-74
2022/10/27 12:54:21;;;;;;;5.68;3.20;;;27.60;75.30;;;;;;4952112;29;20417;-74
2022/10/27 12:57:44;;;;;;;4.85;2.70;;;28.20;72.40;;;;;;4952238;28;20456;-75
2022/10/27 13:00:13;;;;;;;3.63;2.70;;;28.50;68.70;;;;;;4931829;29;20912;-74
2022/10/27 13:03:09;;;;;;;7.75;3.28;;;28.60;67.60;;;;;;4927497;29;20419;-74
2022/10/27 13:06:08;;;;;;;7.68;2.80;;;29.40;69.80;;;;;;4947905;28;20410;-74
2022/10/27 13:08:52;;;;;;;6.88;2.90;;;28.40;68.40;;;;;;4950351;28;20465;-75